Time;durP1;ratioP1;P1;durP2;ratioP2;P2;SDS_P1;SDS_P2;PMS_P1;PMS_P2;Temp;Humidity;BMP_temperature;BMP_pressure;BME280_temperature;BME280_humidity;BME280_pressure;Samples;Min_cycle;Max_cycle;Signal;HPM_P1;HPM_P2
2023/12/20 00:01:29;;;;;;;5.57;3.30;;;;;;;;;;5030335;28;20063;-70
2023/12/20 00:03:54;;;;;;;5.27;3.40;;;;;;;;;;5030684;28;20100;-73
2023/12/20 00:06:20;;;;;;;6.63;3.03;;;;;;;;;;5048960;28;20078;-71
2023/12/20 00:08:47;;;;;;;4.10;2.63;;;;;;;;;;5016064;28;20547;-68
2023/12/20 00:11:13;;;;;;;3.30;2.57;;;;;;;;;;5011253;28;20032;-70
2023/12/20 00:13:38;;;;;;;4.40;2.77;;;;;;;;;;5028979;28;20026;-68
2023/12/20 00:16:04;;;;;;;4.80;3.07;;;;;;;;;;5011016;28;20120;-69
2023/12/20 00:18:29;;;;;;;8.47;3.63;;;;;;;;;;5028966;28;20026;-69
2023/12/20 00:20:55;;;;;;;3.80;2.50;;;;;;;;;;5028865;28;20065;-70
2023/12/20 00:23:21;;;;;;;5.97;3.20;;;;;;;;;;5011087;28;20029;-70
2023/12/20 00:25:47;;;;;;;5.20;3.03;;;;;;;;;;5010875;28;20033;-70
2023/12/20 00:28:12;;;;;;;5.50;3.27;;;;;;;;;;5020532;28;20037;-70
2023/12/20 00:30:38;;;;;;;4.60;3.10;;;;;;;;;;5048514;28;20047;-70
2023/12/20 00:33:03;;;;;;;4.83;3.63;;;;;;;;;;5048449;28;20112;-72
2023/12/20 00:35:29;;;;;;;5.40;3.30;;;;;;;;;;5030361;28;20060;-71
2023/12/20 00:37:54;;;;;;;5.73;3.37;;;;;;;;;;5041562;28;20428;-70
2023/12/20 00:40:20;;;;;;;5.03;3.20;;;;;;;;;;5028638;28;20022;-70
2023/12/20 00:42:46;;;;;;;5.53;3.97;;;;;;;;;;5028522;28;20025;-70
2023/12/20 00:45:12;;;;;;;3.83;3.23;;;;;;;;;;5010999;28;20080;-69
2023/12/20 00:47:38;;;;;;;5.17;3.73;;;;;;;;;;5032856;28;20025;-70
2023/12/20 00:50:04;;;;;;;13.23;3.57;;;;;;;;;;5048368;28;20515;-71
2023/12/20 00:52:29;;;;;;;5.13;3.50;;;;;;;;;;5048134;28;20066;-70
2023/12/20 00:54:55;;;;;;;7.43;4.30;;;;;;;;;;5048320;28;20063;-69
2023/12/20 00:57:20;;;;;;;4.87;3.37;;;;;;;;;;5046700;28;20069;-70
2023/12/20 00:59:46;;;;;;;9.43;3.77;;;;;;;;;;5011357;28;20052;-70
2023/12/20 01:02:12;;;;;;;5.07;3.70;;;;;;;;;;5029273;28;20154;-70
2023/12/20 01:04:38;;;;;;;6.73;3.93;;;;;;;;;;5028324;28;20022;-70
2023/12/20 01:07:04;;;;;;;4.77;3.67;;;;;;;;;;5029098;28;20677;-71
2023/12/20 01:09:29;;;;;;;7.03;3.60;;;;;;;;;;5030748;28;20029;-71
2023/12/20 01:11:55;;;;;;;5.87;3.40;;;;;;;;;;5034137;28;20029;-70
2023/12/20 01:14:20;;;;;;;5.80;3.70;;;;;;;;;;5015376;28;20086;-72
2023/12/20 01:16:46;;;;;;;7.67;3.57;;;;;;;;;;5034805;28;20089;-69
2023/12/20 01:19:13;;;;;;;7.40;3.93;;;;;;;;;;5033128;28;20063;-70
2023/12/20 01:21:39;;;;;;;5.90;3.87;;;;;;;;;;5014105;28;20036;-69
2023/12/20 01:24:06;;;;;;;6.10;3.70;;;;;;;;;;5032570;28;20021;-69
2023/12/20 01:26:31;;;;;;;6.93;3.57;;;;;;;;;;5032026;28;20040;-70
2023/12/20 01:28:57;;;;;;;6.43;4.17;;;;;;;;;;5031844;28;20026;-69
2023/12/20 01:31:23;;;;;;;9.20;3.80;;;;;;;;;;5031866;28;20340;-69
2023/12/20 01:33:48;;;;;;;8.10;3.73;;;;;;;;;;5013623;28;20025;-69
2023/12/20 01:36:15;;;;;;;7.83;4.30;;;;;;;;;;5013821;28;20385;-69
2023/12/20 01:38:41;;;;;;;7.30;4.17;;;;;;;;;;5031161;28;20033;-69
2023/12/20 01:41:06;;;;;;;6.77;4.30;;;;;;;;;;5031172;28;20043;-70
2023/12/20 01:43:32;;;;;;;7.13;4.20;;;;;;;;;;5030832;28;20029;-70
2023/12/20 01:45:58;;;;;;;5.37;3.90;;;;;;;;;;5029925;28;20084;-69
2023/12/20 01:48:27;;;;;;;6.70;3.97;;;;;;;;;;5030457;28;20046;-70
2023/12/20 01:50:54;;;;;;;9.47;4.13;;;;;;;;;;5030908;28;20093;-70
2023/12/20 01:53:21;;;;;;;7.63;3.97;;;;;;;;;;5030981;28;20029;-69
2023/12/20 01:55:48;;;;;;;6.17;3.80;;;;;;;;;;5029443;28;20531;-70
2023/12/20 01:58:14;;;;;;;4.77;3.70;;;;;;;;;;5030931;28;20485;-70
2023/12/20 02:00:40;;;;;;;6.40;4.40;;;;;;;;;;5012668;28;20028;-70
2023/12/20 02:03:06;;;;;;;7.33;4.13;;;;;;;;;;5012887;28;20050;-70
2023/12/20 02:05:34;;;;;;;5.07;3.90;;;;;;;;;;5030784;28;20029;-73
2023/12/20 02:08:00;;;;;;;6.03;4.23;;;;;;;;;;5014799;28;20474;-68
2023/12/20 02:10:27;;;;;;;5.90;4.07;;;;;;;;;;5030599;28;20037;-70
2023/12/20 02:12:52;;;;;;;6.37;4.27;;;;;;;;;;5030551;28;20037;-72
2023/12/20 02:15:19;;;;;;;6.10;4.23;;;;;;;;;;5029398;28;20159;-69
2023/12/20 02:17:47;;;;;;;7.57;5.17;;;;;;;;;;5028885;28;20506;-72
2023/12/20 02:20:12;;;;;;;7.57;4.07;;;;;;;;;;5011973;28;20418;-70
2023/12/20 02:22:38;;;;;;;7.87;4.47;;;;;;;;;;5030049;28;20136;-68
2023/12/20 02:25:04;;;;;;;7.67;4.40;;;;;;;;;;5027279;28;20485;-71
2023/12/20 02:27:30;;;;;;;6.63;4.60;;;;;;;;;;5030284;28;20033;-70
2023/12/20 02:29:56;;;;;;;7.43;4.27;;;;;;;;;;5029870;28;20466;-70
2023/12/20 02:32:22;;;;;;;6.97;4.13;;;;;;;;;;5030752;28;20036;-68
2023/12/20 02:34:48;;;;;;;7.53;5.00;;;;;;;;;;5028575;28;20025;-71
2023/12/20 02:37:14;;;;;;;6.80;4.47;;;;;;;;;;5030250;28;20025;-71
2023/12/20 02:39:40;;;;;;;6.30;4.17;;;;;;;;;;5029565;28;20377;-70
2023/12/20 02:42:06;;;;;;;6.60;4.57;;;;;;;;;;5030370;28;20469;-69
2023/12/20 02:44:31;;;;;;;6.60;4.17;;;;;;;;;;5030078;28;20030;-70
2023/12/20 02:46:57;;;;;;;9.20;4.23;;;;;;;;;;5012043;28;20385;-69
2023/12/20 02:49:22;;;;;;;8.10;4.60;;;;;;;;;;5029889;28;20347;-70
2023/12/20 02:51:48;;;;;;;9.27;4.77;;;;;;;;;;5028685;28;20021;-69
2023/12/20 02:54:13;;;;;;;8.23;5.17;;;;;;;;;;5030276;28;20025;-72
2023/12/20 02:56:39;;;;;;;8.57;4.33;;;;;;;;;;5029752;28;20167;-71
2023/12/20 02:59:05;;;;;;;7.70;4.43;;;;;;;;;;5028166;28;20037;-69
2023/12/20 03:01:31;;;;;;;8.50;4.20;;;;;;;;;;5031070;28;20060;-69
2023/12/20 03:03:57;;;;;;;8.13;3.67;;;;;;;;;;5031559;28;20036;-69
2023/12/20 03:06:23;;;;;;;7.57;4.53;;;;;;;;;;5049604;28;20064;-70
2023/12/20 03:08:50;;;;;;;7.47;4.23;;;;;;;;;;5049237;28;20434;-70
2023/12/20 03:11:15;;;;;;;6.33;4.03;;;;;;;;;;5031690;28;20032;-69
2023/12/20 03:13:41;;;;;;;7.93;4.30;;;;;;;;;;5048085;28;20044;-69
2023/12/20 03:16:13;;;;;;;6.20;3.87;;;;;;;;;;5046700;28;20073;-70
2023/12/20 03:18:39;;;;;;;6.93;4.03;;;;;;;;;;4995327;28;20022;-70
2023/12/20 03:21:06;;;;;;;4.13;3.30;;;;;;;;;;5029458;28;20861;-71
2023/12/20 03:23:34;;;;;;;7.30;4.37;;;;;;;;;;5011499;28;20033;-69
2023/12/20 03:26:00;;;;;;;5.73;3.80;;;;;;;;;;5029871;28;20029;-70
2023/12/20 03:28:27;;;;;;;5.20;3.43;;;;;;;;;;5031156;28;20032;-70
2023/12/20 03:30:54;;;;;;;6.63;3.43;;;;;;;;;;5031214;28;20025;-71
2023/12/20 03:33:19;;;;;;;6.43;3.77;;;;;;;;;;5031005;28;20025;-71
2023/12/20 03:35:45;;;;;;;6.50;4.20;;;;;;;;;;5030970;28;20150;-70
2023/12/20 03:38:10;;;;;;;7.10;3.67;;;;;;;;;;5030218;28;20060;-69
2023/12/20 03:40:36;;;;;;;7.40;3.57;;;;;;;;;;5011047;28;20144;-70
2023/12/20 03:43:01;;;;;;;5.97;3.73;;;;;;;;;;5029250;28;20108;-70
2023/12/20 03:45:27;;;;;;;5.67;3.63;;;;;;;;;;5028880;28;20489;-70
2023/12/20 03:47:56;;;;;;;7.80;3.40;;;;;;;;;;5026752;28;20074;-70
2023/12/20 03:50:25;;;;;;;5.30;3.27;;;;;;;;;;5049054;28;20078;-71
2023/12/20 03:52:51;;;;;;;4.50;2.93;;;;;;;;;;5048865;28;20025;-69
2023/12/20 03:55:16;;;;;;;4.90;2.97;;;;;;;;;;5048998;28;20036;-70
2023/12/20 03:57:42;;;;;;;5.77;2.73;;;;;;;;;;5044492;28;20108;-69
2023/12/20 04:00:11;;;;;;;3.67;2.63;;;;;;;;;;5048821;28;20432;-68
2023/12/20 04:02:38;;;;;;;4.63;2.90;;;;;;;;;;5030869;28;20049;-69
2023/12/20 04:05:04;;;;;;;3.70;2.93;;;;;;;;;;5030968;28;20124;-69
2023/12/20 04:07:30;;;;;;;4.37;2.73;;;;;;;;;;5035867;28;20030;-69
2023/12/20 04:09:56;;;;;;;3.67;2.80;;;;;;;;;;5010939;28;20038;-69
2023/12/20 04:12:23;;;;;;;2.87;2.50;;;;;;;;;;5011007;28;20095;-70
2023/12/20 04:14:48;;;;;;;4.20;3.03;;;;;;;;;;5010825;28;20025;-68
2023/12/20 04:17:18;;;;;;;4.70;2.90;;;;;;;;;;5019442;28;20394;-69
2023/12/20 04:19:43;;;;;;;4.50;2.57;;;;;;;;;;5030296;28;20070;-70
2023/12/20 04:22:09;;;;;;;3.37;2.57;;;;;;;;;;5048567;28;20107;-69
2023/12/20 04:24:35;;;;;;;2.57;2.10;;;;;;;;;;5048585;28;20025;-68
2023/12/20 04:27:01;;;;;;;3.57;2.30;;;;;;;;;;5029720;28;20033;-71
2023/12/20 04:29:27;;;;;;;4.37;2.10;;;;;;;;;;5048722;28;20064;-71
2023/12/20 04:31:53;;;;;;;1.97;1.70;;;;;;;;;;5014152;28;20057;-70
2023/12/20 04:34:18;;;;;;;2.70;2.20;;;;;;;;;;5048893;28;20477;-70
2023/12/20 04:36:44;;;;;;;2.77;2.10;;;;;;;;;;5043269;28;20033;-69
2023/12/20 04:39:11;;;;;;;3.20;2.10;;;;;;;;;;5020597;28;20515;-69
2023/12/20 04:41:37;;;;;;;3.33;1.93;;;;;;;;;;5031151;28;20416;-70
2023/12/20 04:44:03;;;;;;;2.87;1.87;;;;;;;;;;5031329;28;20029;-70
2023/12/20 04:46:28;;;;;;;2.93;2.00;;;;;;;;;;5049677;28;20025;-69
2023/12/20 04:48:54;;;;;;;2.27;2.07;;;;;;;;;;5032126;28;20037;-69
2023/12/20 04:51:20;;;;;;;3.00;2.33;;;;;;;;;;5014408;28;20055;-68
2023/12/20 04:53:45;;;;;;;5.30;2.53;;;;;;;;;;5032429;28;20504;-70
2023/12/20 04:56:11;;;;;;;2.70;1.97;;;;;;;;;;5014564;28;20040;-70
2023/12/20 04:58:37;;;;;;;2.73;1.70;;;;;;;;;;5052395;28;20055;-68
2023/12/20 05:01:05;;;;;;;4.60;2.70;;;;;;;;;;5033947;28;20028;-70
2023/12/20 05:03:30;;;;;;;3.63;2.37;;;;;;;;;;5052322;28;20444;-70
2023/12/20 05:05:58;;;;;;;3.20;2.20;;;;;;;;;;5052223;28;20107;-70
2023/12/20 05:08:23;;;;;;;3.27;2.50;;;;;;;;;;5015884;28;20029;-70
2023/12/20 05:10:49;;;;;;;5.70;2.60;;;;;;;;;;5031794;28;20132;-71
2023/12/20 05:13:15;;;;;;;4.23;2.63;;;;;;;;;;5014271;28;20457;-68
2023/12/20 05:15:41;;;;;;;4.50;2.73;;;;;;;;;;5013817;28;20021;-70
2023/12/20 05:18:06;;;;;;;5.57;2.97;;;;;;;;;;5046685;28;20029;-70
2023/12/20 05:20:32;;;;;;;4.90;3.40;;;;;;;;;;5033435;28;20457;-69
2023/12/20 05:22:57;;;;;;;4.87;2.83;;;;;;;;;;5033571;28;20040;-69
2023/12/20 05:25:23;;;;;;;4.77;2.70;;;;;;;;;;5051504;28;20025;-71
2023/12/20 05:27:48;;;;;;;4.10;3.00;;;;;;;;;;5050454;28;20040;-70
2023/12/20 05:30:14;;;;;;;5.27;2.47;;;;;;;;;;5053617;28;20057;-69
2023/12/20 05:32:39;;;;;;;3.73;2.63;;;;;;;;;;5033241;28;20040;-70
2023/12/20 05:35:05;;;;;;;5.13;2.80;;;;;;;;;;5047322;28;20026;-69
2023/12/20 05:37:32;;;;;;;3.30;2.70;;;;;;;;;;5031363;28;20029;-69
2023/12/20 05:39:58;;;;;;;9.47;2.67;;;;;;;;;;5013627;28;20033;-70
2023/12/20 05:42:23;;;;;;;4.03;2.73;;;;;;;;;;5031312;28;20333;-69
2023/12/20 05:44:49;;;;;;;3.70;2.93;;;;;;;;;;5014388;28;20109;-73
2023/12/20 05:47:14;;;;;;;3.43;2.53;;;;;;;;;;5051082;28;20412;-71
2023/12/20 05:49:39;;;;;;;3.33;2.03;;;;;;;;;;5050915;28;20135;-69
2023/12/20 05:52:05;;;;;;;3.57;2.60;;;;;;;;;;5032802;28;20166;-71
2023/12/20 05:54:31;;;;;;;2.23;1.90;;;;;;;;;;5049316;28;20249;-70
2023/12/20 05:56:56;;;;;;;4.40;2.30;;;;;;;;;;5032465;28;20026;-71
2023/12/20 05:59:22;;;;;;;4.53;2.20;;;;;;;;;;5031218;28;20510;-70
2023/12/20 06:01:47;;;;;;;2.70;2.43;;;;;;;;;;5012669;28;20053;-70
2023/12/20 06:04:13;;;;;;;3.27;2.43;;;;;;;;;;5013541;28;20488;-71
2023/12/20 06:06:42;;;;;;;2.90;2.53;;;;;;;;;;5030708;28;20033;-69
2023/12/20 06:09:08;;;;;;;4.93;2.60;;;;;;;;;;5029462;28;20021;-69
2023/12/20 06:11:34;;;;;;;3.13;2.30;;;;;;;;;;5030679;28;20480;-70
2023/12/20 06:13:59;;;;;;;3.87;2.63;;;;;;;;;;5030306;28;20080;-69
2023/12/20 06:16:24;;;;;;;5.07;2.13;;;;;;;;;;5030407;28;20071;-68
2023/12/20 06:18:50;;;;;;;3.20;2.23;;;;;;;;;;5030619;28;20031;-71
2023/12/20 06:21:16;;;;;;;3.33;2.20;;;;;;;;;;5030653;28;20033;-70
2023/12/20 06:23:41;;;;;;;2.87;2.03;;;;;;;;;;5007094;28;20033;-68
2023/12/20 06:26:07;;;;;;;2.70;2.00;;;;;;;;;;5028141;28;20026;-70
2023/12/20 06:28:32;;;;;;;2.17;1.83;;;;;;;;;;5030453;28;20033;-70
2023/12/20 06:30:58;;;;;;;3.33;1.83;;;;;;;;;;5011933;28;20056;-71
2023/12/20 06:33:24;;;;;;;3.77;2.13;;;;;;;;;;5016525;28;20037;-72
2023/12/20 06:35:50;;;;;;;2.20;1.70;;;;;;;;;;5015722;28;20034;-69
2023/12/20 06:38:19;;;;;;;2.03;1.70;;;;;;;;;;5031630;28;20053;-72
2023/12/20 06:40:45;;;;;;;4.17;1.93;;;;;;;;;;5038018;28;20017;-71
2023/12/20 06:43:11;;;;;;;1.37;1.27;;;;;;;;;;5023430;28;20083;-68
2023/12/20 06:45:37;;;;;;;2.20;1.50;;;;;;;;;;5034842;28;20075;-70
2023/12/20 06:48:03;;;;;;;5.07;1.93;;;;;;;;;;5011842;28;20021;-68
2023/12/20 06:50:29;;;;;;;2.00;1.50;;;;;;;;;;5001806;28;20029;-70
2023/12/20 06:52:54;;;;;;;1.73;1.63;;;;;;;;;;5017852;28;20117;-69
2023/12/20 06:55:20;;;;;;;1.50;1.40;;;;;;;;;;5010967;28;20021;-70
2023/12/20 06:57:45;;;;;;;2.37;2.00;;;;;;;;;;5028189;28;20032;-70
2023/12/20 07:00:12;;;;;;;2.20;1.57;;;;;;;;;;5042757;28;20044;-71
2023/12/20 07:02:37;;;;;;;1.63;1.50;;;;;;;;;;5027934;28;20057;-69
2023/12/20 07:05:04;;;;;;;2.10;1.67;;;;;;;;;;5024622;28;20021;-68
2023/12/20 07:07:30;;;;;;;1.97;1.60;;;;;;;;;;5029553;28;20465;-70
2023/12/20 07:09:55;;;;;;;1.97;1.30;;;;;;;;;;5029708;28;20064;-70
2023/12/20 07:12:21;;;;;;;3.73;1.50;;;;;;;;;;5029991;28;20040;-70
2023/12/20 07:14:47;;;;;;;2.03;1.70;;;;;;;;;;5028875;28;20034;-70
2023/12/20 07:17:14;;;;;;;1.83;1.50;;;;;;;;;;5025360;28;20033;-69
2023/12/20 07:19:42;;;;;;;2.10;1.40;;;;;;;;;;5000224;28;20033;-69
2023/12/20 07:22:07;;;;;;;2.10;1.60;;;;;;;;;;5031898;28;20033;-69
2023/12/20 07:24:34;;;;;;;2.33;1.43;;;;;;;;;;5038257;28;20032;-70
2023/12/20 07:27:00;;;;;;;2.30;1.67;;;;;;;;;;5018316;28;20031;-69
2023/12/20 07:29:26;;;;;;;1.77;1.20;;;;;;;;;;5038594;28;20074;-70
2023/12/20 07:31:54;;;;;;;1.57;1.10;;;;;;;;;;5033840;28;20049;-69
2023/12/20 07:34:20;;;;;;;1.33;1.17;;;;;;;;;;5013221;28;20120;-69
2023/12/20 07:36:47;;;;;;;1.17;1.07;;;;;;;;;;5014953;28;20112;-69
2023/12/20 07:39:14;;;;;;;1.80;1.20;;;;;;;;;;5037309;28;20509;-70
2023/12/20 07:41:40;;;;;;;2.70;1.40;;;;;;;;;;4994029;28;20069;-70
2023/12/20 07:44:08;;;;;;;1.57;1.17;;;;;;;;;;5032734;28;20111;-72
2023/12/20 07:46:35;;;;;;;3.03;2.30;;;;;;;;;;5028341;28;20160;-70
2023/12/20 07:49:01;;;;;;;1.10;1.00;;;;;;;;;;5044209;28;20055;-71
2023/12/20 07:51:27;;;;;;;1.17;1.07;;;;;;;;;;5030452;28;20602;-70
2023/12/20 07:53:52;;;;;;;2.30;1.03;;;;;;;;;;5023241;28;20032;-73
2023/12/20 07:56:20;;;;;;;1.97;1.13;;;;;;;;;;5037811;28;20053;-69
2023/12/20 07:58:48;;;;;;;2.47;1.53;;;;;;;;;;5022451;28;20029;-68
2023/12/20 08:01:16;;;;;;;1.37;1.27;;;;;;;;;;5018008;28;20026;-69
2023/12/20 08:03:41;;;;;;;0.67;0.67;;;;;;;;;;5018989;28;20108;-70
2023/12/20 08:06:07;;;;;;;1.60;1.10;;;;;;;;;;5034263;28;20131;-70
2023/12/20 08:08:33;;;;;;;1.57;1.10;;;;;;;;;;5013871;28;20629;-68
2023/12/20 08:11:00;;;;;;;1.27;1.13;;;;;;;;;;5017506;28;20991;-73
2023/12/20 08:13:30;;;;;;;1.40;0.93;;;;;;;;;;5020523;28;20112;-72
2023/12/20 08:16:03;;;;;;;1.23;0.90;;;;;;;;;;4998206;28;20048;-70
2023/12/20 08:18:31;;;;;;;;;;;;;;;;;;5034157;28;20032;-71
2023/12/20 08:21:08;;;;;;;1.77;1.03;;;;;;;;;;5035762;28;19916;-71
2023/12/20 08:23:38;;;;;;;1.40;1.10;;;;;;;;;;5038332;28;20103;-71
2023/12/20 08:26:20;;;;;;;1.23;1.00;;;;;;;;;;5017852;28;20064;-72
2023/12/20 08:28:52;;;;;;;2.30;1.38;;;;;;;;;;5028570;28;20091;-70
2023/12/20 08:31:21;;;;;;;1.03;0.97;;;;;;;;;;5039156;28;20037;-72
2023/12/20 08:33:53;;;;;;;1.67;1.37;;;;;;;;;;5046904;28;20131;-72
2023/12/20 08:36:23;;;;;;;1.10;1.00;;;;;;;;;;5026461;28;20151;-66
2023/12/20 08:38:56;;;;;;;1.60;0.93;;;;;;;;;;5005299;28;20080;-73
2023/12/20 08:41:22;;;;;;;1.13;0.80;;;;;;;;;;5021038;28;20033;-73
2023/12/20 08:43:51;;;;;;;0.83;0.83;;;;;;;;;;5043019;28;20044;-72
2023/12/20 08:46:23;;;;;;;0.90;0.90;;;;;;;;;;5041058;28;20040;-69
2023/12/20 08:48:50;;;;;;;;;;;;;;;;;;5015343;28;20041;-71
2023/12/20 08:51:16;;;;;;;0.90;0.90;;;;;;;;;;5033577;28;19909;-72
2023/12/20 08:53:48;;;;;;;16.43;7.43;;;;;;;;;;5025379;28;20082;-70
2023/12/20 08:56:15;;;;;;;1.23;1.20;;;;;;;;;;5039023;28;20029;-71
2023/12/20 08:58:43;;;;;;;1.30;0.73;;;;;;;;;;5041912;28;20029;-69
2023/12/20 09:01:10;;;;;;;0.60;0.60;;;;;;;;;;5025916;28;20088;-72
2023/12/20 09:03:41;;;;;;;2.00;1.00;;;;;;;;;;5041787;28;20048;-73
2023/12/20 09:06:14;;;;;;;2.40;0.60;;;;;;;;;;5030150;28;20025;-70
2023/12/20 09:08:44;;;;;;;0.90;0.80;;;;;;;;;;5041325;28;20056;-71
2023/12/20 09:11:15;;;;;;;2.30;0.90;;;;;;;;;;5036203;28;20025;-69
2023/12/20 09:13:42;;;;;;;1.33;1.00;;;;;;;;;;5044374;28;20160;-71
2023/12/20 09:16:09;;;;;;;1.37;1.00;;;;;;;;;;5044344;28;20118;-71
2023/12/20 09:18:36;;;;;;;1.70;1.03;;;;;;;;;;5045239;28;20057;-70
2023/12/20 09:21:02;;;;;;;2.27;1.30;;;;;;;;;;5022072;28;20098;-69
2023/12/20 09:23:31;;;;;;;1.70;1.27;;;;;;;;;;5024101;28;20057;-71
2023/12/20 09:26:02;;;;;;;0.93;0.77;;;;;;;;;;5023738;28;20053;-70
2023/12/20 09:28:36;;;;;;;1.20;1.10;;;;;;;;;;5043154;28;20524;-73
2023/12/20 09:31:10;;;;;;;1.35;0.82;;;;;;;;;;5041487;28;20061;-69
2023/12/20 09:33:38;;;;;;;0.87;0.80;;;;;;;;;;5026688;28;20044;-70
2023/12/20 09:36:05;;;;;;;1.43;1.33;;;;;;;;;;5042961;28;20029;-71
2023/12/20 09:38:33;;;;;;;5.40;1.10;;;;;;;;;;5028804;28;20076;-69
2023/12/20 09:41:04;;;;;;;1.67;1.00;;;;;;;;;;5015282;28;20033;-70
2023/12/20 09:43:41;;;;;;;1.30;0.90;;;;;;;;;;5038641;28;20033;-72
2023/12/20 09:46:12;;;;;;;1.00;0.90;;;;;;;;;;5024905;28;20044;-69
2023/12/20 09:48:44;;;;;;;2.27;1.43;;;;;;;;;;5025832;28;20048;-70
2023/12/20 09:51:17;;;;;;;3.20;1.13;;;;;;;;;;5014874;28;20174;-70
2023/12/20 09:53:45;;;;;;;1.27;0.80;;;;;;;;;;5032431;28;20066;-71
2023/12/20 09:56:15;;;;;;;1.73;1.07;;;;;;;;;;5037769;28;20116;-69
2023/12/20 09:58:42;;;;;;;2.97;1.10;;;;;;;;;;5001783;28;20043;-70
2023/12/20 10:01:11;;;;;;;2.00;1.40;;;;;;;;;;5016679;28;20041;-69
2023/12/20 10:03:44;;;;;;;0.83;0.80;;;;;;;;;;5030089;28;20048;-71
2023/12/20 10:06:13;;;;;;;0.67;0.67;;;;;;;;;;5034988;28;20021;-71
2023/12/20 10:08:39;;;;;;;1.83;0.80;;;;;;;;;;5039796;28;20028;-70
2023/12/20 10:11:15;;;;;;;3.03;1.33;;;;;;;;;;5031386;28;21182;-70
2023/12/20 10:13:47;;;;;;;1.53;1.00;;;;;;;;;;5024511;28;20045;-73
2023/12/20 10:16:16;;;;;;;1.17;0.90;;;;;;;;;;4992125;28;20045;-72
2023/12/20 10:18:48;;;;;;;0.97;0.77;;;;;;;;;;5037931;28;20476;-74
2023/12/20 10:21:18;;;;;;;1.38;0.77;;;;;;;;;;5009677;28;20069;-69
2023/12/20 10:24:08;;;;;;;0.93;0.90;;;;;;;;;;4997476;28;20055;-69
2023/12/20 10:26:34;;;;;;;0.90;0.63;;;;;;;;;;5020812;28;20036;-71
2023/12/20 10:29:07;;;;;;;1.40;1.30;;;;;;;;;;5039152;28;20040;-71
2023/12/20 10:31:35;;;;;;;1.70;0.97;;;;;;;;;;5032533;28;20374;-70
2023/12/20 10:34:04;;;;;;;2.07;0.60;;;;;;;;;;5022088;28;20041;-69
2023/12/20 10:36:37;;;;;;;0.50;0.50;;;;;;;;;;5014748;28;20104;-70
2023/12/20 10:39:11;;;;;;;0.83;0.60;;;;;;;;;;5035918;28;20026;-69
2023/12/20 10:41:44;;;;;;;0.77;0.60;;;;;;;;;;5027549;28;20104;-70
2023/12/20 10:44:12;;;;;;;0.67;0.53;;;;;;;;;;5042485;28;20029;-71
2023/12/20 10:46:47;;;;;;;0.60;0.60;;;;;;;;;;5015567;28;20159;-73
2023/12/20 10:49:17;;;;;;;1.70;1.50;;;;;;;;;;5027223;28;20040;-70
2023/12/20 10:51:46;;;;;;;0.80;0.70;;;;;;;;;;5038747;28;20127;-72
2023/12/20 10:54:16;;;;;;;0.93;0.60;;;;;;;;;;5021384;28;20017;-69
2023/12/20 10:56:45;;;;;;;0.80;0.80;;;;;;;;;;5022127;28;20120;-70
2023/12/20 10:59:11;;;;;;;1.20;0.87;;;;;;;;;;5039326;28;20531;-69
2023/12/20 11:01:41;;;;;;;1.80;0.93;;;;;;;;;;5038318;28;20060;-69
2023/12/20 11:04:20;;;;;;;2.20;0.90;;;;;;;;;;5018669;28;20158;-72
2023/12/20 11:06:59;;;;;;;0.97;0.73;;;;;;;;;;5013523;28;20056;-70
2023/12/20 11:09:45;;;;;;;2.33;1.40;;;;;;;;;;5026166;28;20028;-70
2023/12/20 11:12:33;;;;;;;1.27;0.80;;;;;;;;;;5004342;28;20038;-71
2023/12/20 11:15:04;;;;;;;1.07;0.83;;;;;;;;;;5045476;28;20037;-69
2023/12/20 11:17:32;;;;;;;3.13;0.93;;;;;;;;;;5045753;28;20029;-72
2023/12/20 11:19:58;;;;;;;2.03;0.90;;;;;;;;;;5035664;28;20080;-72
2023/12/20 11:22:32;;;;;;;0.80;0.80;;;;;;;;;;5042484;28;20029;-72
2023/12/20 11:25:10;;;;;;;1.10;0.87;;;;;;;;;;5038768;28;20462;-69
2023/12/20 11:27:46;;;;;;;1.53;0.90;;;;;;;;;;5038109;28;20473;-72
2023/12/20 11:30:14;;;;;;;1.27;1.10;;;;;;;;;;5018672;28;20443;-70
2023/12/20 11:32:47;;;;;;;4.03;1.03;;;;;;;;;;5020135;28;20033;-70
2023/12/20 11:35:23;;;;;;;2.00;0.90;;;;;;;;;;5022901;28;20037;-70
2023/12/20 11:37:52;;;;;;;0.80;0.80;;;;;;;;;;5024048;28;20032;-69
2023/12/20 11:40:21;;;;;;;3.97;1.00;;;;;;;;;;5046309;28;20528;-68
2023/12/20 11:42:55;;;;;;;1.10;0.77;;;;;;;;;;5024272;28;20524;-71
2023/12/20 11:45:24;;;;;;;2.17;1.27;;;;;;;;;;5037793;28;20161;-69
2023/12/20 11:47:59;;;;;;;1.93;1.33;;;;;;;;;;5015911;28;20540;-69
2023/12/20 11:50:26;;;;;;;2.97;1.50;;;;;;;;;;5020148;28;20138;-69
2023/12/20 11:52:56;;;;;;;2.13;1.30;;;;;;;;;;5038051;28;20040;-71
2023/12/20 11:55:29;;;;;;;1.77;1.10;;;;;;;;;;5017180;28;20037;-71
2023/12/20 11:57:58;;;;;;;1.87;1.37;;;;;;;;;;5031660;28;20056;-68
2023/12/20 12:00:30;;;;;;;1.27;0.87;;;;;;;;;;5023627;28;20029;-69
2023/12/20 12:02:59;;;;;;;1.33;0.98;;;;;;;;;;5035395;28;20053;-70
2023/12/20 12:05:27;;;;;;;1.97;0.97;;;;;;;;;;5027056;28;20037;-69
2023/12/20 12:07:55;;;;;;;3.30;0.90;;;;;;;;;;5015030;28;20033;-72
2023/12/20 12:10:26;;;;;;;1.77;1.10;;;;;;;;;;5024175;28;20051;-72
2023/12/20 12:12:54;;;;;;;1.67;1.05;;;;;;;;;;5028928;28;20462;-71
2023/12/20 12:15:22;;;;;;;1.77;1.20;;;;;;;;;;5018455;28;20063;-69
2023/12/20 12:17:56;;;;;;;5.57;1.23;;;;;;;;;;5031803;28;20431;-69
2023/12/20 12:20:28;;;;;;;1.53;1.00;;;;;;;;;;5019525;28;20021;-71
2023/12/20 12:23:04;;;;;;;1.03;0.87;;;;;;;;;;5023253;28;20174;-71
2023/12/20 12:25:37;;;;;;;17.10;2.90;;;;;;;;;;5032039;28;20456;-68
2023/12/20 12:28:07;;;;;;;1.73;1.33;;;;;;;;;;5031982;28;20037;-68
2023/12/20 12:30:41;;;;;;;4.67;1.40;;;;;;;;;;5041598;28;20033;-71
2023/12/20 12:33:10;;;;;;;3.13;1.30;;;;;;;;;;5017193;28;20028;-70
2023/12/20 12:35:40;;;;;;;1.20;1.10;;;;;;;;;;5042542;28;20073;-69
2023/12/20 12:38:08;;;;;;;2.00;0.93;;;;;;;;;;5023628;28;20475;-71
2023/12/20 12:40:38;;;;;;;4.47;1.43;;;;;;;;;;5001207;28;20211;-70
2023/12/20 12:43:08;;;;;;;2.77;1.43;;;;;;;;;;5032692;28;20025;-70
2023/12/20 12:45:40;;;;;;;0.97;0.93;;;;;;;;;;5033763;28;20160;-71
2023/12/20 12:48:15;;;;;;;2.10;1.00;;;;;;;;;;5016184;28;20046;-69
2023/12/20 12:50:42;;;;;;;1.85;1.13;;;;;;;;;;5019554;28;20059;-71
2023/12/20 12:53:22;;;;;;;2.72;1.58;;;;;;;;;;5036843;28;20084;-70
2023/12/20 12:55:51;;;;;;;5.40;3.30;;;;;;;;;;5032740;28;20041;-71
2023/12/20 12:58:18;;;;;;;1.20;1.10;;;;;;;;;;5037635;28;20520;-68
2023/12/20 13:00:47;;;;;;;3.83;1.25;;;;;;;;;;5034607;28;20032;-69
2023/12/20 13:03:34;;;;;;;5.85;1.33;;;;;;;;;;5028663;28;20060;-68
2023/12/20 13:06:00;;;;;;;2.08;1.10;;;;;;;;;;5024549;28;20393;-71
2023/12/20 13:08:27;;;;;;;2.08;1.20;;;;;;;;;;5027091;28;20027;-69
2023/12/20 13:11:00;;;;;;;2.33;1.05;;;;;;;;;;5028328;28;20034;-69
2023/12/20 13:13:30;;;;;;;3.42;1.30;;;;;;;;;;5031903;28;20563;-72
2023/12/20 13:16:00;;;;;;;2.70;1.10;;;;;;;;;;5015109;28;20415;-72
2023/12/20 13:18:27;;;;;;;2.47;1.90;;;;;;;;;;5023218;28;20033;-69
2023/12/20 13:20:56;;;;;;;2.83;1.30;;;;;;;;;;5034478;28;20095;-70
2023/12/20 13:23:23;;;;;;;2.53;1.15;;;;;;;;;;5048673;28;20035;-69
2023/12/20 13:25:52;;;;;;;2.15;1.20;;;;;;;;;;5039499;28;20083;-69
2023/12/20 13:28:21;;;;;;;1.75;0.98;;;;;;;;;;5038865;28;20075;-71
2023/12/20 13:30:51;;;;;;;1.20;1.00;;;;;;;;;;5042495;28;20047;-69
2023/12/20 13:33:19;;;;;;;2.55;1.88;;;;;;;;;;5030636;28;20537;-72
2023/12/20 13:35:48;;;;;;;2.97;1.13;;;;;;;;;;5039283;28;20021;-70
2023/12/20 13:38:14;;;;;;;2.13;0.88;;;;;;;;;;5042528;28;20105;-69
2023/12/20 13:40:40;;;;;;;3.58;1.27;;;;;;;;;;5044972;28;20488;-69
2023/12/20 13:43:06;;;;;;;4.25;1.00;;;;;;;;;;5025858;28;20025;-68
2023/12/20 13:45:33;;;;;;;2.30;1.23;;;;;;;;;;5045889;28;20104;-71
2023/12/20 13:47:59;;;;;;;1.95;0.93;;;;;;;;;;5039924;28;20025;-70
2023/12/20 13:50:26;;;;;;;1.65;0.85;;;;;;;;;;5011576;28;20416;-69
2023/12/20 13:52:51;;;;;;;3.73;1.10;;;;;;;;;;5034244;28;20029;-71
2023/12/20 13:55:17;;;;;;;9.40;6.27;;;;;;;;;;5030427;28;20087;-70
2023/12/20 13:57:44;;;;;;;0.93;0.70;;;;;;;;;;5046691;28;20504;-68
2023/12/20 14:00:14;;;;;;;3.43;1.00;;;;;;;;;;5045353;28;20029;-70
2023/12/20 14:02:41;;;;;;;2.38;0.90;;;;;;;;;;5041377;28;20117;-69
2023/12/20 14:05:08;;;;;;;3.83;1.13;;;;;;;;;;5022699;28;20489;-69
2023/12/20 14:07:34;;;;;;;3.90;0.93;;;;;;;;;;5027678;28;20033;-70
2023/12/20 14:10:00;;;;;;;4.73;1.30;;;;;;;;;;5037629;28;20033;-67
2023/12/20 14:12:25;;;;;;;2.90;1.07;;;;;;;;;;5026499;28;20087;-69
2023/12/20 14:14:51;;;;;;;4.40;2.23;;;;;;;;;;5017403;28;20115;-69
2023/12/20 14:17:17;;;;;;;2.57;0.80;;;;;;;;;;5047976;28;20120;-70
2023/12/20 14:19:43;;;;;;;4.13;1.93;;;;;;;;;;5054081;28;20119;-70
2023/12/20 14:22:09;;;;;;;4.20;1.00;;;;;;;;;;5042318;28;20053;-69
2023/12/20 14:24:37;;;;;;;1.37;1.17;;;;;;;;;;5019680;28;20033;-69
2023/12/20 14:27:03;;;;;;;3.73;1.30;;;;;;;;;;5046349;28;20103;-66
2023/12/20 14:29:30;;;;;;;1.23;1.10;;;;;;;;;;5046244;28;20021;-69
2023/12/20 14:31:56;;;;;;;1.80;0.90;;;;;;;;;;5037997;28;20024;-70
2023/12/20 14:34:23;;;;;;;2.23;1.03;;;;;;;;;;5032838;28;20436;-68
2023/12/20 14:36:49;;;;;;;2.20;0.97;;;;;;;;;;5043570;28;20036;-70
2023/12/20 14:39:17;;;;;;;4.50;1.60;;;;;;;;;;5023535;28;20028;-69
2023/12/20 14:41:46;;;;;;;1.07;0.80;;;;;;;;;;5021469;28;20482;-71
2023/12/20 14:44:12;;;;;;;2.07;0.70;;;;;;;;;;5017111;28;20033;-70
2023/12/20 14:46:38;;;;;;;2.67;0.87;;;;;;;;;;5036396;28;20529;-67